Nicolò Di Stefano

Olheiro-Chefe - Napoli
10 Set 2028
Domingo
Processo

Personalidade

Adaptabilidade (6) Ambição (15) Controvérsia (16) Lealdade (3) Pressão (6) Profissionalismo (19) Espírito Esportivo (4) Temperamento (12)

Perfil

Estilo de Treinamento Democrático
Licença Continental Pro
Determinação 6
Gestão de Pessoas 16
Motivação 7
Disciplina 8
Satisfação no Trabalho
29%
Fadiga
0%
Função Olheiro-Chefe
Salário 18.5K p/s
Contrato 14.03.2030

Desempenho

Comportamento Bom
Eficácia do Treinamento
11%
Desenvolvimento do Jogador
80%
Prevenção de Lesões
60%
Implementação Tática
60%

Eventos Recentes

Participou de uma reunião de recrutamento agora
Participou de uma reunião de recrutamento agora
Recomendou um alvo de transferência agora
Recomendou um alvo de transferência agora
Recomendou um alvo de transferência 7d atrás
Recomendou um alvo de transferência 7d atrás
Recomendou um alvo de transferência 7d atrás
Recomendou um alvo de transferência 7d atrás

Monitorando agora

146
Jogador Clube Status Habilidade Confiança Observado Última observação Último voto
Igor Tyjon Barrow AFC Ativo 120 / 132 40% 1 08.08.2028 -
Bogdan Popov Empoli Ativo 127 / 132 40% 1 08.08.2028 -
Matteo Lovato Padova Relatório pronto 141 / 137 90% 1 31.07.2028 -
Marco Pompetti Padova Relatório pronto 132 / 132 90% 1 17.07.2028 -
Lamare Bogarde Reading Ativo 143 / 138 40% 1 03.07.2028 -
Matteo Ruggeri Middlesbrough Ativo 160 / 154 40% 1 03.07.2028 -
Yerson Mosquera Wolverhampton Perdido 147 / 147 40% 1 03.07.2028 -
Emile Smith Rowe Cardiff City Ativo 159 / 158 40% 1 21.06.2028 -
Archie Gray Southampton Ativo 155 / 156 40% 1 21.06.2028 -
Pietro Iemmello Catanzaro Relatório pronto 128 / 133 90% 1 19.06.2028 -
Alieu Njie Torino Ativo 134 / 139 40% 1 13.06.2028 -
Mohamed-Ali Cho Hull City Ativo 146 / 143 40% 1 13.06.2028 -
James Rodríguez Pescara Perdido 133 / 129 90% 1 12.06.2028 -
Álvaro Busso Vélez Ativo 110 / 115 40% 7 04.06.2028 -
Omari Hutchinson Nottingham Forest Ativo 152 / 154 40% 1 31.05.2028 -
Charles De Ketelaere Tottenham Ativo 160 / 158 40% 1 31.05.2028 -
Giacomo Raspadori Atalanta Ativo 155 / 149 40% 1 31.05.2028 -
Sam Proctor Salford City Ativo 122 / 126 40% 21 29.05.2028 -
Denys Marchenko Eintracht Frankfurt Ativo 114 / 120 40% 2 29.05.2028 -
Diego Mascardi Juventus Ativo 140 / 143 40% 46 27.05.2028 -
Richard Koné Queens Park Rangers Ativo 129 / 130 40% 2 26.05.2028 -
William Osula Wrexham Ativo 139 / 134 40% 3 24.05.2028 -
Tyreece Campbell Charlton Athletic Ativo 124 / 125 40% 2 24.05.2028 -
Rocco Vata Watford Ativo 125 / 124 40% 2 20.05.2028 -
Pablo Felipe West Ham United Ativo 142 / 143 40% 2 20.05.2028 -
Jayden Danns Bradford City Ativo 139 / 137 40% 1 15.05.2028 -
Leo Castledine Middlesbrough Ativo 135 / 138 40% 1 15.05.2028 -
Ante Crnac Bristol Rovers Ativo 126 / 125 40% 1 14.05.2028 -
Dylan Moody Cheltenham Town Ativo 119 / 128 40% 22 13.05.2028 -
Ilyas Ansah Hull City Ativo 138 / 141 40% 1 10.05.2028 -
Malik Mothersille Stockport County Ativo 121 / 119 40% 1 29.04.2028 -
Ryan Kavuma-McQueen Accrington Stanley Ativo 121 / 130 40% 2 25.04.2028 -
Benjamin Šeško Manchester United Ativo 159 / 163 40% 1 25.04.2028 -
Lorenzo Insigne Sampdoria Ativo 129 / 127 90% 1 31.01.2028 Aprovar
Josh Acheampong Everton Ativo 143 / 143 40% 2 01.01.2028 -
Kobbie Mainoo Manchester United Ativo 156 / 164 40% 9 31.12.2027 -
Riccardo Orsolini Bologna Ativo 158 / 158 40% 16 30.12.2027 -
Nicolás González Juventus Ativo 158 / 152 40% 6 30.12.2027 -
Weston McKennie Juventus Ativo 162 / 164 40% 22 28.12.2027 -
Agustín Obregón River Plate Ativo 109 / 119 40% 1 27.12.2027 -
Andrey Ivlev Nizhniy Novgorod Ativo 114 / 115 40% 1 27.12.2027 -
Kenneth Taylor Lazio Ativo 157 / 156 40% 15 24.12.2027 -
Christopher Nkunku AC Milan Ativo 160 / 155 40% 19 24.12.2027 -
Théo Hernández CSKA Moscow Ativo 154 / 155 40% 11 23.12.2027 -
Khéphren Thuram Juventus Ativo 164 / 163 40% 41 21.12.2027 -
Francisco Trincão Inter Ativo 165 / 158 40% 34 20.12.2027 -
Exequiel Palacios Lazio Ativo 159 / 162 40% 27 19.12.2027 -
Victor Hernandez Santa Fe Ativo 118 / 118 40% 3 19.12.2027 -
Alexis Saelemaekers AC Milan Ativo 157 / 157 40% 16 15.12.2027 -
Manuel Locatelli Juventus Ativo 156 / 157 40% 12 15.12.2027 -
Curtis Jones Inter Ativo 162 / 158 40% 24 12.12.2027 -
Jorthy Mokio ADO Den Haag Ativo 130 / 140 40% 1 11.12.2027 -
Andrea Cambiaso Juventus Ativo 156 / 153 40% 2 10.12.2027 -
Christian Pulisic AC Milan Ativo 165 / 160 40% 25 05.12.2027 -
Celías Ingenthron Platense Ativo 116 / 118 40% 3 29.11.2027 -
Othniël Raterink Cagliari Ativo 115 / 125 40% 2 26.11.2027 -
Nejc Viher NK Maribor Ativo 119 / 122 40% 1 26.11.2027 -
Juan Manuel Villalba Tigre Ativo 118 / 128 40% 1 17.11.2027 -
Luka Vušković Tottenham Ativo 146 / 151 40% 13 16.11.2027 -
Pierre Kalulu Juventus Ativo 156 / 157 40% 31 08.11.2027 -
Malick Yalcouyé Brighton Ativo 133 / 135 40% 1 07.11.2027 -
Francesco Dell'Aquila Vis Pesaro Ativo 102 / 105 30% 1 / 1m 03.11.2027 -
Raffaele Cantisani Casertana Ativo 90 / 93 30% 1 / 1m 03.11.2027 -
Matias Siltanen Malmo FF Ativo 124 / 126 40% 1 07.10.2027 -
Nathaniel Brown Bayern Munich Ativo 149 / 149 40% 4 10.08.2027 -
Arthur Atta Fiorentina Ativo 148 / 152 40% 3 30.07.2027 -
Máximo Perrone Juventus Ativo 144 / 145 40% 2 18.07.2027 -
Devyne Rensch Virtus Entella Ativo 145 / 148 40% 1 18.07.2027 -
Equi Fernández Bayer Leverkusen Ativo 144 / 143 40% 2 17.07.2027 -
Diego Gómez Brighton Ativo 144 / 145 40% 14 01.06.2027 -
Malo Gusto Chelsea Ativo 148 / 149 40% 4 25.05.2027 -
Savinho Tottenham Ativo 159 / 157 40% 12 22.05.2027 -
Stanislav Agkatsev Brentford Ativo 132 / 133 66% 1 01.01.2027 Aprovar
Marvin Keller Chelsea Ativo 136 / 137 67% 1 01.01.2027 Aprovar
Jeff Ekhator Juventus Ativo 127 / 137 90% 1 01.01.2027 Aprovar
Mateo Pellegrino Fiorentina Ativo 138 / 138 40% 1 01.01.2027 -
Martin Trnovský Podbrezova Ativo 114 / 119 40% 4 30.12.2026 -
Elia Caprile Cagliari Ativo 141 / 140 40% 10 28.12.2026 -
Gianluca Saro Foggia Ativo 109 / 112 40% 7 28.12.2026 -
Richard Ludha MFK Skalica Ativo 109 / 114 40% 2 27.12.2026 -
Shahriar Rezaeian Siah Jamegan Ativo 106 / 116 40% 2 24.12.2026 -
Heorhii Yermakov Metalist Ativo 112 / 125 40% 1 24.12.2026 -
Bogdan Ovsyannikov Orenburg Ativo 112 / 103 40% 4 23.12.2026 -
Luca Gemello Perugia Ativo 109 / 115 40% 5 19.12.2026 -
Patrick Schulte Columbus Crew Ativo 124 / 116 40% 7 13.12.2026 -
Sergio Barlocco Trento Ativo 106 / 104 40% 4 02.12.2026 -
Matevž Vidovšek Olimpija Ljubljana Ativo 123 / 129 40% 2 02.12.2026 -
Federico Ravaglia Bologna Ativo 134 / 129 40% 1 30.11.2026 -
Ştefan Târnovanu CFR Cluj Ativo 120 / 127 40% 2 26.11.2026 -
João Valido Chaves Ativo 112 / 112 40% 1 19.11.2026 -
Filip Marschall Stevenage Ativo 110 / 106 40% 2 18.11.2026 -
Roman Celentano FC Cincinnati Ativo 120 / 127 40% 6 11.11.2026 -
Keisuke Osako Sanfrecce Hiroshima Ativo 141 / 130 40% 2 08.11.2026 -
John Pulskamp Sporting Kansas City Ativo 113 / 123 40% 3 07.11.2026 -
Lukas Gütlbauer Wolfsberger AC Ativo 114 / 116 40% 2 07.11.2026 -
Mads Hedenstad AGF Ativo 119 / 122 40% 1 05.11.2026 -
Bogdan Kostić Partizan Ativo 112 / 117 30% 1 / 1m 04.11.2026 -
Cyril Ngonge Napoli Ativo 145 / 145 52% 1 / 1m 04.11.2026 -
Saba Goglichidze Udinese Ativo 132 / 135 30% 1 / 1m 04.11.2026 -
Andy Diouf Inter Ativo 141 / 144 30% 1 / 1m 04.11.2026 -
Andrea Sodero Trento Ativo 90 / 93 42% 1 / 1m 04.11.2026 -
Hamza El Kaouakibi Südtirol Ativo 110 / 110 30% 1 / 1m 04.11.2026 -
Matteo Cortesi Arezzo Ativo 107 / 107 42% 1 / 1m 04.11.2026 -
Antonio Donnarumma Salernitana Ativo 117 / 117 42% 1 / 1m 04.11.2026 -
Kazuki Fujita Avispa Fukuoka Ativo 126 / 116 40% 2 30.10.2026 -
Samuel Brolin Kalmar FF Ativo 116 / 116 40% 1 29.10.2026 -
James Trafford Leeds United Ativo 143 / 136 40% 1 26.10.2026 -
Zion Suzuki Aston Villa Ativo 140 / 135 40% 2 25.10.2026 -
Josh Keeley Luton Town Ativo 119 / 119 40% 1 23.10.2026 -
Nicolás Sumavil Platense Ativo 115 / 119 40% 3 18.10.2026 -
Giorgi Mamardashvili Liverpool Ativo 160 / 160 40% 1 11.10.2026 -
Nathan Trott Cardiff City Ativo 124 / 124 40% 1 09.10.2026 -
Esteban Glellel Quilmes Ativo 112 / 105 40% 3 08.10.2026 -
Caoimhin Kelleher Brentford Ativo 146 / 148 40% 1 07.10.2026 -
Robin Roefs Sunderland Ativo 139 / 143 40% 1 06.10.2026 -
Senne Lammens Manchester United Ativo 148 / 145 40% 1 06.10.2026 -
Federico Losas Chacarita Juniors Ativo 112 / 123 40% 1 05.10.2026 -
Grégoire Coudert Burnley Ativo 127 / 126 40% 1 04.10.2026 -
Luis Ingolotti Atlético Tucumán Ativo 126 / 124 40% 1 04.10.2026 -
Radek Vítek Middlesbrough Ativo 132 / 140 40% 1 25.09.2026 -
Luciano Jachfe Nueva Chicago Ativo 112 / 116 40% 1 24.09.2026 -
Iliman N'Diaye Everton Ativo 158 / 155 40% 2 20.09.2026 -
Gonçalo Ramos AC Milan Ativo 155 / 147 40% 3 20.09.2026 Observar
Gianluca Scamacca Atalanta Ativo 143 / 150 40% 1 19.09.2026 -
Gabriel Martinelli Arsenal Ativo 160 / 163 40% 1 17.09.2026 -
Kevin Schade Chelsea Ativo 148 / 154 40% 1 16.09.2026 -
Hugo Ekitiké Liverpool Ativo 158 / 164 40% 1 14.09.2026 -
Bradley Barcola Liverpool Ativo 159 / 164 40% 1 11.09.2026 -
Federico Chiesa Liverpool Ativo 151 / 152 40% 1 08.09.2026 -
Alexis Vega Feyenoord Ativo 141 / 144 40% 1 08.09.2026 -
João Pedro Chelsea Ativo 151 / 150 40% 1 08.09.2026 -
Morgan Rogers Chelsea Ativo 158 / 160 40% 2 07.09.2026 -
Dominic Solanke Tottenham Ativo 144 / 149 40% 1 07.09.2026 -
Antoine Semenyo Manchester City Ativo 153 / 155 40% 1 31.08.2026 -
Jarrad Branthwaite Everton Ativo 147 / 149 40% 1 11.08.2026 -
Juanlu Bournemouth Ativo 146 / 145 40% 1 10.08.2026 -
Nicolò Rovella Lazio Ativo 145 / 155 40% 1 10.08.2026 -
Nico O'Reilly Manchester City Ativo 146 / 159 40% 1 09.08.2026 -
Lewis Hall Newcastle United Ativo 146 / 146 40% 2 08.08.2026 -
Ousmane Dembélé Paris Saint-Germain Ativo 185 / 181 40% 1 03.08.2026 -
Florian Wirtz Liverpool Ativo 164 / 175 40% 1 03.08.2026 -
Jérémy Doku Manchester City Ativo 165 / 166 40% 1 03.08.2026 -
João Neves Paris Saint-Germain Ativo 160 / 165 40% 1 03.08.2026 -
Martin Ødegaard Arsenal Ativo 179 / 171 40% 1 01.08.2026 -
Dominik Szoboszlai Liverpool Ativo 163 / 163 40% 1 01.08.2026 -
Dejan Kulusevski Tottenham Ativo 160 / 166 40% 1 01.08.2026 -